Time;durP1;ratioP1;P1;durP2;ratioP2;P2;SDS_P1;SDS_P2;PMS_P1;PMS_P2;Temp;Humidity;BMP_temperature;BMP_pressure;BME280_temperature;BME280_humidity;BME280_pressure;Samples;Min_cycle;Max_cycle;Signal;HPM_P1;HPM_P2
2022/09/24 00:01:58;;;;;;;12.40;6.53;;;13.50;95.30;;;;;;4956758;28;20130;-84
2022/09/24 00:04:25;;;;;;;8.50;6.05;;;13.50;94.50;;;;;;4922091;28;20113;-84
2022/09/24 00:06:50;;;;;;;18.25;8.68;;;13.60;95.50;;;;;;4954881;28;20042;-84
2022/09/24 00:09:20;;;;;;;8.15;5.38;;;13.50;97.50;;;;;;4956640;28;20039;-84
2022/09/24 00:11:46;;;;;;;6.65;5.03;;;13.60;95.30;;;;;;4941122;28;20042;-84
2022/09/24 00:14:12;;;;;;;9.93;8.02;;;13.70;96.20;;;;;;4949832;28;20368;-84
2022/09/24 00:16:39;;;;;;;13.95;8.40;;;13.60;97.00;;;;;;4944304;28;20534;-84
2022/09/24 00:19:04;;;;;;;7.75;5.65;;;13.60;99.10;;;;;;4945313;28;20035;-83
2022/09/24 00:21:31;;;;;;;7.68;5.03;;;13.50;96.70;;;;;;4940999;28;20061;-83
2022/09/24 00:24:08;;;;;;;7.50;5.80;;;13.50;96.70;;;;;;4960063;28;20494;-84
2022/09/24 00:26:49;;;;;;;8.98;5.55;;;13.60;97.10;;;;;;4934189;28;20028;-83
2022/09/24 00:29:19;;;;;;;15.13;8.20;;;13.50;96.90;;;;;;4945481;28;20035;-83
2022/09/24 00:31:45;;;;;;;9.45;6.45;;;13.50;97.60;;;;;;4958000;28;20034;-83
2022/09/24 00:34:11;;;;;;;7.70;6.50;;;13.50;97.70;;;;;;4948267;28;20030;-84
2022/09/24 00:36:36;;;;;;;9.48;5.63;;;13.50;97.20;;;;;;4946004;28;20038;-83
2022/09/24 00:39:02;;;;;;;9.43;6.53;;;13.50;97.20;;;;;;4927582;28;20446;-83
2022/09/24 00:41:30;;;;;;;9.88;6.32;;;13.50;96.60;;;;;;4927457;28;20031;-83
2022/09/24 00:43:55;;;;;;;14.57;8.55;;;13.40;97.00;;;;;;4925386;28;20546;-83
2022/09/24 00:46:24;;;;;;;9.98;6.65;;;13.50;99.00;;;;;;4941996;28;20114;-83
2022/09/24 00:48:54;;;;;;;17.75;8.80;;;13.50;97.70;;;;;;4965871;28;20035;-83
2022/09/24 00:51:20;;;;;;;8.15;6.32;;;13.50;99.90;;;;;;4938385;28;20039;-82
2022/09/24 00:53:48;;;;;;;17.95;8.15;;;13.40;98.80;;;;;;4930339;28;20050;-83
2022/09/24 00:56:14;;;;;;;8.10;5.30;;;13.50;98.70;;;;;;4922757;28;20470;-83
2022/09/24 00:58:41;;;;;;;7.72;4.97;;;13.50;97.70;;;;;;4954960;28;20030;-83
2022/09/24 01:01:06;;;;;;;9.68;6.55;;;13.50;97.30;;;;;;4944884;28;20440;-83
2022/09/24 01:03:34;;;;;;;13.77;6.78;;;13.50;97.60;;;;;;4945301;28;20062;-83
2022/09/24 01:06:00;;;;;;;14.82;9.15;;;13.70;98.10;;;;;;4924496;28;20031;-83
2022/09/24 01:08:25;;;;;;;11.63;6.55;;;13.50;99.90;;;;;;4942556;28;20024;-84
2022/09/24 01:11:19;;;;;;;11.48;7.28;;;13.40;99.10;;;;;;4925543;28;20616;-84
2022/09/24 01:14:13;;;;;;;11.20;7.18;;;13.40;99.10;;;;;;4955339;28;20028;-83
2022/09/24 01:16:48;;;;;;;16.80;8.80;;;13.30;99.20;;;;;;4965342;28;20034;-83
2022/09/24 01:19:44;;;;;;;9.07;6.32;;;13.30;99.00;;;;;;4944699;28;20757;-83
2022/09/24 01:22:34;;;;;;;9.70;7.03;;;13.30;99.00;;;;;;4934762;28;20118;-84
2022/09/24 01:25:28;;;;;;;8.82;5.97;;;13.40;99.80;;;;;;4968049;28;20035;-83
2022/09/24 01:28:18;;;;;;;13.02;9.88;;;13.40;99.00;;;;;;4959215;28;20086;-82
2022/09/24 01:30:46;;;;;;;9.98;5.93;;;13.40;99.90;;;;;;4946332;28;20126;-83
2022/09/24 01:33:15;;;;;;;21.30;9.70;;;13.40;99.50;;;;;;4954025;28;20464;-83
2022/09/24 01:35:44;;;;;;;13.65;9.02;;;13.40;99.90;;;;;;4944459;28;20066;-83
2022/09/24 01:38:15;;;;;;;18.65;9.70;;;13.30;99.90;;;;;;4946709;28;20028;-83
2022/09/24 01:40:41;;;;;;;18.20;9.93;;;12.80;99.10;;;;;;4948665;28;20038;-83
2022/09/24 01:43:07;;;;;;;8.63;6.57;;;13.20;99.50;;;;;;4948271;28;20042;-83
2022/09/24 01:45:33;;;;;;;15.48;9.32;;;13.40;98.90;;;;;;4957468;28;20039;-83
2022/09/24 01:48:01;;;;;;;15.10;10.10;;;13.20;99.10;;;;;;4928048;28;20027;-83
2022/09/24 01:50:28;;;;;;;17.65;11.13;;;13.20;99.90;;;;;;4956345;28;20032;-83
2022/09/24 01:53:01;;;;;;;14.55;10.65;;;13.10;99.80;;;;;;4965888;28;20119;-82
2022/09/24 01:55:29;;;;;;;16.70;11.00;;;13.10;99.50;;;;;;4945244;28;20402;-82
2022/09/24 01:58:00;;;;;;;19.02;11.45;;;13.10;99.80;;;;;;4962462;28;20018;-83
2022/09/24 02:00:25;;;;;;;11.32;8.27;;;13.20;99.70;;;;;;4956784;28;20063;-83
2022/09/24 02:02:55;;;;;;;12.27;8.68;;;13.30;99.90;;;;;;4967489;28;20058;-82
2022/09/24 02:05:50;;;;;;;13.05;8.50;;;13.20;99.80;;;;;;4946907;28;20034;-82
2022/09/24 02:08:33;;;;;;;13.15;9.38;;;13.20;99.10;;;;;;4945360;28;20558;-83
2022/09/24 02:11:04;;;;;;;15.15;10.27;;;13.30;99.90;;;;;;4973930;28;20077;-83
2022/09/24 02:13:38;;;;;;;20.00;10.82;;;13.20;99.90;;;;;;4961943;28;20027;-83
2022/09/24 02:16:04;;;;;;;15.18;10.93;;;13.20;99.90;;;;;;4962815;28;20555;-82
2022/09/24 02:18:33;;;;;;;12.38;9.13;;;13.10;99.90;;;;;;4942108;28;20032;-82
2022/09/24 02:20:59;;;;;;;12.57;8.95;;;13.10;99.90;;;;;;4957702;28;20127;-83
2022/09/24 02:23:25;;;;;;;15.82;10.82;;;13.90;99.90;;;;;;4933356;28;20547;-83
2022/09/24 02:25:56;;;;;;;13.48;9.70;;;13.10;99.90;;;;;;4948917;28;20125;-83
2022/09/24 02:28:22;;;;;;;18.90;9.02;;;13.10;99.90;;;;;;4944329;28;20034;-82
2022/09/24 02:30:50;;;;;;;15.55;10.75;;;13.10;99.90;;;;;;4965269;28;20031;-83
2022/09/24 02:36:00;;;;;;;9.73;7.28;;;13.00;99.90;;;;;;4963488;28;20122;-83
2022/09/24 02:38:26;;;;;;;9.27;7.03;;;13.00;99.90;;;;;;4945269;28;20495;-83
2022/09/24 02:40:52;;;;;;;9.98;7.22;;;13.00;99.90;;;;;;4953044;28;20403;-83
2022/09/24 02:43:17;;;;;;;21.98;12.07;;;13.00;99.90;;;;;;4930161;28;20136;-83
2022/09/24 02:45:43;;;;;;;14.63;10.73;;;13.10;99.90;;;;;;4964921;28;20046;-83
2022/09/24 02:48:08;;;;;;;10.90;7.38;;;13.00;99.70;;;;;;4948590;28;20031;-83
2022/09/24 02:50:34;;;;;;;16.75;9.98;;;12.90;99.90;;;;;;4928897;28;20066;-83
2022/09/24 02:53:00;;;;;;;15.20;11.02;;;12.90;99.90;;;;;;4927491;28;20518;-83
2022/09/24 02:55:26;;;;;;;11.68;7.47;;;13.00;99.90;;;;;;4962489;28;20066;-83
2022/09/24 02:57:52;;;;;;;7.22;5.60;;;13.00;99.90;;;;;;4951582;28;20034;-83
2022/09/24 03:00:19;;;;;;;8.85;5.72;;;13.00;99.90;;;;;;4931331;28;20030;-83
2022/09/24 03:02:46;;;;;;;9.27;6.63;;;13.10;99.90;;;;;;4956477;28;20503;-83
2022/09/24 03:05:12;;;;;;;8.43;5.97;;;13.00;99.90;;;;;;4925309;28;20071;-83
2022/09/24 03:07:38;;;;;;;8.70;7.00;;;13.10;99.90;;;;;;4940876;28;20058;-83
2022/09/24 03:10:04;;;;;;;13.52;9.23;;;13.10;99.90;;;;;;4933522;28;20035;-83
2022/09/24 03:12:29;;;;;;;9.63;6.97;;;13.00;99.90;;;;;;4947994;28;20102;-83
2022/09/24 03:14:55;;;;;;;14.68;10.73;;;13.00;99.90;;;;;;4943146;28;20035;-83
2022/09/24 03:17:21;;;;;;;13.30;10.15;;;13.00;99.90;;;;;;4938739;28;20113;-83
2022/09/24 03:19:46;;;;;;;19.38;13.88;;;13.00;99.90;;;;;;4959447;28;20030;-83
2022/09/24 03:22:12;;;;;;;15.52;9.90;;;13.00;99.90;;;;;;4972081;28;20051;-83
2022/09/24 03:24:37;;;;;;;22.63;14.80;;;13.00;99.90;;;;;;4946612;28;20427;-83
2022/09/24 03:27:03;;;;;;;18.00;13.27;;;12.90;99.90;;;;;;4946687;28;20034;-83
2022/09/24 03:32:12;;;;;;;13.52;9.52;;;12.80;99.90;;;;;;4961548;28;20086;-84
2022/09/24 03:34:38;;;;;;;23.27;14.77;;;12.80;99.90;;;;;;4939331;28;20039;-83
2022/09/24 03:37:03;;;;;;;17.40;12.07;;;12.80;99.90;;;;;;4959232;28;20031;-83
2022/09/24 03:39:29;;;;;;;13.30;10.25;;;13.00;99.90;;;;;;4974872;28;20027;-83
2022/09/24 03:41:55;;;;;;;20.05;13.48;;;12.80;99.90;;;;;;4957527;28;20023;-83
2022/09/24 03:44:20;;;;;;;18.13;14.52;;;12.90;99.90;;;;;;4948415;28;20043;-83
2022/09/24 03:46:46;;;;;;;21.42;14.63;;;12.70;99.90;;;;;;4960640;28;20110;-82
2022/09/24 03:49:11;;;;;;;25.73;16.08;;;12.70;99.90;;;;;;4947534;28;20070;-83
2022/09/24 03:51:37;;;;;;;24.50;17.00;;;12.70;99.90;;;;;;4948290;28;20038;-83
2022/09/24 03:54:02;;;;;;;25.52;16.50;;;12.70;99.90;;;;;;4943342;28;20035;-82
2022/09/24 03:56:28;;;;;;;15.95;9.80;;;12.60;99.90;;;;;;4964750;28;20023;-82
2022/09/24 03:58:53;;;;;;;14.05;8.95;;;12.60;99.90;;;;;;4928589;28;20126;-82
2022/09/24 04:01:19;;;;;;;23.35;13.77;;;12.50;99.90;;;;;;4931071;28;20058;-83
2022/09/24 04:03:45;;;;;;;21.30;14.98;;;12.60;99.90;;;;;;4946472;28;20043;-83
2022/09/24 04:06:11;;;;;;;19.27;15.88;;;12.50;99.90;;;;;;4960559;28;20190;-83
2022/09/24 04:08:37;;;;;;;27.85;17.45;;;12.50;99.90;;;;;;4944763;28;20542;-83
2022/09/24 04:11:02;;;;;;;18.95;13.63;;;12.50;99.90;;;;;;4949175;28;20050;-83
2022/09/24 04:13:28;;;;;;;23.85;16.02;;;12.50;99.90;;;;;;4936770;28;20031;-83
2022/09/24 04:15:53;;;;;;;24.10;15.85;;;12.40;99.90;;;;;;4964131;28;20035;-83
2022/09/24 04:18:19;;;;;;;19.92;15.45;;;12.40;99.90;;;;;;4946021;28;20058;-82
2022/09/24 04:20:45;;;;;;;22.40;15.48;;;12.40;99.90;;;;;;4943941;28;20503;-83
2022/09/24 04:23:11;;;;;;;21.23;14.88;;;12.40;99.90;;;;;;4943647;28;20054;-83
2022/09/24 04:25:36;;;;;;;21.10;15.18;;;12.30;99.90;;;;;;4960771;28;20038;-83
2022/09/24 04:28:04;;;;;;;20.70;14.88;;;12.30;99.90;;;;;;4958990;28;20035;-83
2022/09/24 04:30:29;;;;;;;12.60;8.98;;;12.30;99.90;;;;;;4941051;28;20030;-83
2022/09/24 04:32:59;;;;;;;15.27;10.50;;;12.30;99.90;;;;;;4957658;28;20406;-82
2022/09/24 04:35:28;;;;;;;13.27;10.07;;;12.40;99.90;;;;;;4962230;28;20121;-82
2022/09/24 04:37:54;;;;;;;10.93;8.27;;;12.40;99.90;;;;;;4946023;28;20517;-83
2022/09/24 04:40:20;;;;;;;12.43;8.45;;;12.40;99.90;;;;;;4945747;28;20109;-83
2022/09/24 04:42:46;;;;;;;14.07;11.07;;;12.40;99.90;;;;;;4963556;28;20027;-82
2022/09/24 04:45:13;;;;;;;18.83;12.05;;;12.30;99.90;;;;;;4947110;28;20125;-83
2022/09/24 04:47:41;;;;;;;21.05;14.07;;;12.30;99.90;;;;;;4944139;28;20514;-83
2022/09/24 04:50:08;;;;;;;22.40;13.77;;;12.30;99.90;;;;;;4942996;28;20035;-82
2022/09/24 04:52:34;;;;;;;17.73;11.43;;;12.20;99.90;;;;;;4939233;28;20114;-82
2022/09/24 04:54:59;;;;;;;12.50;8.15;;;12.30;99.90;;;;;;4959395;28;20444;-83
2022/09/24 04:57:26;;;;;;;17.23;11.98;;;12.30;99.90;;;;;;4932476;28;20035;-83
2022/09/24 04:59:51;;;;;;;15.32;11.15;;;12.30;99.90;;;;;;4944363;28;20035;-83
2022/09/24 05:02:17;;;;;;;21.05;14.40;;;12.20;99.90;;;;;;4973114;28;20038;-82
2022/09/24 05:04:43;;;;;;;21.23;13.95;;;12.20;99.90;;;;;;4940306;28;20518;-83
2022/09/24 05:07:09;;;;;;;19.65;14.40;;;12.20;99.90;;;;;;4956581;28;20137;-83
2022/09/24 05:09:36;;;;;;;19.55;14.10;;;12.20;99.90;;;;;;4963322;28;20432;-83
2022/09/24 05:12:02;;;;;;;28.48;15.82;;;12.20;99.90;;;;;;4943311;28;20039;-82
2022/09/24 05:14:28;;;;;;;17.83;11.80;;;12.20;99.90;;;;;;4946386;28;20043;-82
2022/09/24 05:16:53;;;;;;;15.25;10.05;;;12.10;99.90;;;;;;4942966;28;20034;-82
2022/09/24 05:19:19;;;;;;;23.58;15.93;;;12.20;99.90;;;;;;4960061;28;20035;-82
2022/09/24 05:21:45;;;;;;;25.40;16.02;;;12.10;99.90;;;;;;4947387;28;20038;-83
2022/09/24 05:24:11;;;;;;;22.00;16.23;;;12.10;99.90;;;;;;4957293;28;20156;-83
2022/09/24 05:29:20;;;;;;;26.33;16.58;;;12.10;99.90;;;;;;4962631;28;20070;-83
2022/09/24 05:31:46;;;;;;;25.88;16.45;;;12.10;99.90;;;;;;4965003;28;20653;-83
2022/09/24 05:34:13;;;;;;;20.10;13.30;;;12.10;99.90;;;;;;4975099;28;20435;-83
2022/09/24 05:36:39;;;;;;;15.18;10.43;;;12.00;99.90;;;;;;4949779;28;20031;-83
2022/09/24 05:39:04;;;;;;;12.45;9.15;;;12.00;99.90;;;;;;4966863;28;20089;-83
2022/09/24 05:41:30;;;;;;;23.55;14.35;;;12.10;99.90;;;;;;4929865;28;20526;-83
2022/09/24 05:43:55;;;;;;;19.58;13.93;;;12.10;99.90;;;;;;4963284;28;20066;-83
2022/09/24 05:46:21;;;;;;;23.02;14.60;;;12.00;99.90;;;;;;4967650;28;20038;-83
2022/09/24 05:48:47;;;;;;;12.15;9.05;;;12.00;99.90;;;;;;4962284;28;20395;-83
2022/09/24 05:51:12;;;;;;;15.68;9.48;;;12.00;99.90;;;;;;4947538;28;20398;-82
2022/09/24 05:53:38;;;;;;;21.98;11.73;;;12.10;99.90;;;;;;4933313;28;20167;-83
2022/09/24 05:56:03;;;;;;;31.92;15.18;;;12.10;99.90;;;;;;4947284;28;20035;-83
2022/09/24 05:58:30;;;;;;;19.48;12.02;;;12.20;99.90;;;;;;4963629;28;20023;-83
2022/09/24 06:00:58;;;;;;;15.00;12.32;;;12.20;99.90;;;;;;4945601;28;20506;-82
2022/09/24 06:03:24;;;;;;;16.95;12.18;;;12.10;99.90;;;;;;4963808;28;20024;-83
2022/09/24 06:05:50;;;;;;;14.77;10.27;;;12.20;99.90;;;;;;4960102;28;20035;-83
2022/09/24 06:08:16;;;;;;;22.75;14.68;;;12.20;99.90;;;;;;4977133;28;20430;-82
2022/09/24 06:10:44;;;;;;;27.42;17.20;;;12.10;99.90;;;;;;4942851;28;20479;-83
2022/09/24 06:13:13;;;;;;;22.50;16.60;;;11.90;99.90;;;;;;4958778;28;20039;-83
2022/09/24 06:15:40;;;;;;;24.08;17.80;;;12.20;99.90;;;;;;4932581;28;20395;-83
2022/09/24 06:18:05;;;;;;;25.65;16.42;;;12.10;99.90;;;;;;4947778;28;20043;-83
2022/09/24 06:20:31;;;;;;;15.07;10.98;;;12.20;99.90;;;;;;4941076;28;20395;-83
2022/09/24 06:22:57;;;;;;;14.32;9.50;;;12.30;99.90;;;;;;4952444;28;20060;-83
2022/09/24 06:25:25;;;;;;;23.83;15.63;;;12.40;99.90;;;;;;4975307;28;20069;-82
2022/09/24 06:28:00;;;;;;;28.52;16.42;;;12.40;99.90;;;;;;4965729;28;20031;-82
2022/09/24 06:30:32;;;;;;;23.23;15.85;;;12.40;99.90;;;;;;4942351;28;20077;-82
2022/09/24 06:33:04;;;;;;;16.52;10.40;;;12.40;99.90;;;;;;4943172;28;20035;-82
2022/09/24 06:35:36;;;;;;;15.05;10.77;;;12.40;99.90;;;;;;4962565;28;20030;-82
2022/09/24 06:38:02;;;;;;;16.02;7.95;;;12.40;99.90;;;;;;4945973;28;20411;-82
2022/09/24 06:40:28;;;;;;;17.27;13.20;;;12.50;99.90;;;;;;4959379;28;20031;-82
2022/09/24 06:42:54;;;;;;;13.07;9.50;;;12.50;99.90;;;;;;4945356;28;20027;-82
2022/09/24 06:45:20;;;;;;;18.83;13.07;;;12.60;99.90;;;;;;4942931;28;20035;-82
2022/09/24 06:47:52;;;;;;;24.30;14.32;;;12.60;99.90;;;;;;4962750;28;20035;-83
2022/09/24 06:50:18;;;;;;;22.25;15.93;;;12.60;99.90;;;;;;4942550;28;20037;-82
2022/09/24 06:52:52;;;;;;;29.10;17.50;;;12.60;99.90;;;;;;4950091;28;20039;-83
2022/09/24 06:55:18;;;;;;;13.20;9.20;;;12.60;99.90;;;;;;4960513;28;20041;-83
2022/09/24 06:57:44;;;;;;;16.05;11.73;;;12.70;99.90;;;;;;4963340;28;20441;-82
2022/09/24 07:00:11;;;;;;;28.00;17.55;;;12.60;99.90;;;;;;4962431;28;20147;-82
2022/09/24 07:02:36;;;;;;;19.98;12.82;;;12.80;99.90;;;;;;4941738;28;20093;-83
2022/09/24 07:05:02;;;;;;;17.38;10.05;;;12.80;99.90;;;;;;4960027;28;20047;-82
2022/09/24 07:07:28;;;;;;;14.32;9.95;;;12.90;99.90;;;;;;4961261;28;20063;-83
2022/09/24 07:09:54;;;;;;;11.73;8.38;;;13.00;99.90;;;;;;4941249;28;20027;-83
2022/09/24 07:12:19;;;;;;;13.35;9.52;;;13.00;99.90;;;;;;4946832;28;20546;-82
2022/09/24 07:14:45;;;;;;;11.90;8.73;;;13.10;99.90;;;;;;4962173;28;20036;-82
2022/09/24 07:17:11;;;;;;;23.65;15.00;;;13.20;99.90;;;;;;4924917;28;20039;-82
2022/09/24 07:19:37;;;;;;;15.35;9.63;;;13.20;99.90;;;;;;4959771;28;20027;-82
2022/09/24 07:22:03;;;;;;;11.25;7.97;;;13.30;99.90;;;;;;4923524;28;20521;-82
2022/09/24 07:24:29;;;;;;;15.73;11.57;;;13.30;99.90;;;;;;4944782;28;20039;-82
2022/09/24 07:26:55;;;;;;;20.80;11.75;;;13.10;99.90;;;;;;4958799;28;20031;-82
2022/09/24 07:29:21;;;;;;;10.65;7.95;;;13.40;99.90;;;;;;4943844;28;20027;-82
2022/09/24 07:31:47;;;;;;;19.85;13.60;;;13.50;99.90;;;;;;4948112;28;20061;-83
2022/09/24 07:34:13;;;;;;;18.55;12.73;;;13.40;99.90;;;;;;4973503;28;20122;-82
2022/09/24 07:36:39;;;;;;;22.60;13.82;;;13.60;99.90;;;;;;4943414;28;20098;-82
2022/09/24 07:39:04;;;;;;;11.32;7.75;;;13.60;99.90;;;;;;4958023;28;20027;-82
2022/09/24 07:41:30;;;;;;;11.63;8.35;;;13.70;99.90;;;;;;4929727;28;20077;-82
2022/09/24 07:43:56;;;;;;;20.35;13.38;;;13.80;99.90;;;;;;4947705;28;20487;-83
2022/09/24 07:46:21;;;;;;;11.70;7.68;;;13.80;99.90;;;;;;4957843;28;20026;-83
2022/09/24 07:48:48;;;;;;;13.15;8.40;;;13.90;99.90;;;;;;4925976;28;20541;-82
2022/09/24 07:51:14;;;;;;;16.80;11.60;;;13.90;99.90;;;;;;4936952;28;20498;-82
2022/09/24 07:53:39;;;;;;;12.52;8.45;;;14.00;99.90;;;;;;4960121;28;20034;-82
2022/09/24 07:56:05;;;;;;;22.25;14.27;;;14.10;99.90;;;;;;4932525;28;20034;-82
2022/09/24 07:58:31;;;;;;;14.57;9.80;;;14.10;99.90;;;;;;4974211;28;20035;-82
2022/09/24 08:00:58;;;;;;;14.32;9.27;;;14.20;99.90;;;;;;4942731;28;20027;-82
2022/09/24 08:03:24;;;;;;;11.60;7.28;;;14.30;99.90;;;;;;4938845;28;20718;-82
2022/09/24 08:05:50;;;;;;;21.23;12.82;;;14.30;99.90;;;;;;4959988;28;20448;-83
2022/09/24 08:08:15;;;;;;;19.42;12.82;;;14.40;99.90;;;;;;4975370;28;20145;-83
2022/09/24 08:10:41;;;;;;;12.60;7.72;;;14.50;99.90;;;;;;4955283;28;20470;-83
2022/09/24 08:13:07;;;;;;;10.32;7.22;;;14.50;99.90;;;;;;4942559;28;20034;-83
2022/09/24 08:15:33;;;;;;;8.63;6.88;;;14.50;99.90;;;;;;4959782;28;20510;-83
2022/09/24 08:18:01;;;;;;;14.48;9.75;;;14.70;99.90;;;;;;4960360;28;20030;-82
2022/09/24 08:20:27;;;;;;;16.00;9.18;;;14.80;99.90;;;;;;4925092;28;20023;-82
2022/09/24 08:22:53;;;;;;;23.35;15.00;;;15.10;99.90;;;;;;4946734;28;20038;-82
2022/09/24 08:25:18;;;;;;;10.85;8.38;;;15.20;99.90;;;;;;4939647;28;20525;-82
2022/09/24 08:27:44;;;;;;;10.75;7.05;;;15.50;99.90;;;;;;4927565;28;20035;-83
2022/09/24 08:30:10;;;;;;;10.90;6.90;;;15.50;99.90;;;;;;4940872;28;20046;-82
2022/09/24 08:32:36;;;;;;;13.48;7.00;;;15.60;99.90;;;;;;4935538;28;20031;-82
2022/09/24 08:35:01;;;;;;;14.75;8.00;;;15.70;99.90;;;;;;4958529;28;20422;-83
2022/09/24 08:37:28;;;;;;;17.23;10.98;;;15.90;99.90;;;;;;4943812;28;20039;-82
2022/09/24 08:39:54;;;;;;;12.65;7.65;;;16.00;99.90;;;;;;4944390;28;20038;-82
2022/09/24 08:42:40;;;;;;;13.10;8.23;;;16.20;99.90;;;;;;4928915;28;20035;-82
2022/09/24 08:47:56;;;;;;;15.48;8.18;;;16.60;99.90;;;;;;4973240;28;20173;-82
2022/09/24 08:50:32;;;;;;;19.83;12.15;;;16.70;99.90;;;;;;4946071;28;20039;-82
2022/09/24 08:53:16;;;;;;;;;;;17.00;99.90;;;;;;4961093;28;20085;-82
2022/09/24 08:55:44;;;;;;;20.80;12.50;;;17.30;99.90;;;;;;4953826;28;19918;-82
2022/09/24 08:58:16;;;;;;;14.77;10.35;;;17.40;99.90;;;;;;4946189;28;20490;-82
2022/09/24 09:00:59;;;;;;;10.93;6.93;;;17.60;99.90;;;;;;4957234;28;20039;-82
2022/09/24 09:03:39;;;;;;;12.73;9.38;;;17.70;99.90;;;;;;4961500;28;20117;-82
2022/09/24 09:06:18;;;;;;;12.75;7.65;;;17.80;99.90;;;;;;4944870;28;20511;-82
2022/09/24 09:09:04;;;;;;;13.32;9.05;;;18.00;99.90;;;;;;4946528;28;20033;-82
2022/09/24 09:11:31;;;;;;;14.88;8.23;;;18.10;99.90;;;;;;4982542;28;20437;-83
2022/09/24 09:14:16;;;;;;;9.88;7.50;;;18.40;99.90;;;;;;4952861;28;20485;-83
2022/09/24 09:16:58;;;;;;;13.13;8.70;;;18.40;99.90;;;;;;4953040;28;20570;-83
2022/09/24 09:19:29;;;;;;;12.85;8.35;;;18.30;99.90;;;;;;4967623;28;20543;-83
2022/09/24 09:22:00;;;;;;;11.45;7.68;;;18.00;99.90;;;;;;4967700;28;20041;-83
2022/09/24 09:24:34;;;;;;;11.95;7.85;;;18.10;99.90;;;;;;4930944;28;20043;-83
2022/09/24 09:27:00;;;;;;;13.55;7.75;;;18.10;99.70;;;;;;4934393;28;20491;-83
2022/09/24 09:29:26;;;;;;;15.35;10.35;;;18.30;99.90;;;;;;4948190;28;20034;-82
2022/09/24 09:32:17;;;;;;;13.02;9.18;;;18.60;99.90;;;;;;4948522;28;20035;-83
2022/09/24 09:34:58;;;;;;;11.90;8.23;;;19.10;99.90;;;;;;4952914;28;20032;-83
2022/09/24 09:37:29;;;;;;;13.27;8.35;;;19.40;99.90;;;;;;4945767;28;20028;-83
2022/09/24 09:40:04;;;;;;;10.80;7.60;;;19.50;99.90;;;;;;4954773;28;20073;-83
2022/09/24 09:42:34;;;;;;;9.65;6.75;;;19.60;99.90;;;;;;4936983;28;20060;-83
2022/09/24 09:45:14;;;;;;;11.05;7.72;;;19.60;99.90;;;;;;4930068;28;20439;-83
2022/09/24 09:47:42;;;;;;;10.93;7.82;;;19.70;99.70;;;;;;4944475;28;20467;-83
2022/09/24 09:50:28;;;;;;;9.82;6.03;;;19.70;99.90;;;;;;4943401;28;20381;-83
2022/09/24 09:52:54;;;;;;;8.52;6.82;;;19.90;99.90;;;;;;4941577;28;20034;-83
2022/09/24 09:55:33;;;;;;;11.18;7.28;;;19.80;99.10;;;;;;4929931;28;20046;-84
2022/09/24 09:58:14;;;;;;;12.32;7.28;;;19.70;99.30;;;;;;4929088;28;20038;-84
2022/09/24 10:00:40;;;;;;;8.80;6.53;;;20.10;99.90;;;;;;4939933;28;20499;-84
2022/09/24 10:03:05;;;;;;;12.18;7.03;;;20.30;99.90;;;;;;4954817;28;20037;-84
2022/09/24 10:05:31;;;;;;;9.77;6.47;;;19.90;97.90;;;;;;4926880;28;20064;-84
2022/09/24 10:07:57;;;;;;;11.73;7.28;;;20.00;99.00;;;;;;4925218;29;20823;-85
2022/09/24 10:10:24;;;;;;;11.52;6.57;;;20.20;99.30;;;;;;4965552;28;20032;-83
2022/09/24 10:12:54;;;;;;;12.93;6.22;;;20.30;96.60;;;;;;4940654;28;20368;-83
2022/09/24 10:15:23;;;;;;;10.85;7.03;;;20.40;99.30;;;;;;4929646;28;20031;-83
2022/09/24 10:17:50;;;;;;;12.18;6.82;;;21.00;99.90;;;;;;4934647;28;20443;-83
2022/09/24 10:20:26;;;;;;;6.85;5.80;;;21.40;99.90;;;;;;4943272;28;20439;-83
2022/09/24 10:22:55;;;;;;;;;;;21.40;97.30;;;;;;4940425;28;20036;-84
2022/09/24 10:25:23;;;;;;;9.07;6.00;;;21.10;99.90;;;;;;4926842;28;20083;-84
2022/09/24 10:27:49;;;;;;;6.43;5.00;;;21.50;99.90;;;;;;4952508;28;20036;-84
2022/09/24 10:30:33;;;;;;;6.65;4.95;;;21.80;99.20;;;;;;4913678;28;20373;-84
2022/09/24 10:33:00;;;;;;;9.05;5.93;;;21.90;98.30;;;;;;4943932;28;20036;-84
2022/09/24 10:35:34;;;;;;;6.78;5.68;;;22.10;97.80;;;;;;4929693;28;20480;-84
2022/09/24 10:38:01;;;;;;;10.98;6.07;;;22.20;98.20;;;;;;4948371;28;20031;-84
2022/09/24 10:40:29;;;;;;;9.43;6.25;;;22.30;98.00;;;;;;4927819;28;20106;-84
2022/09/24 10:42:56;;;;;;;7.32;5.43;;;22.50;97.80;;;;;;4962204;28;20035;-85
2022/09/24 10:45:22;;;;;;;7.88;5.72;;;22.50;96.40;;;;;;4948370;28;20510;-85
2022/09/24 10:48:23;;;;;;;9.60;5.63;;;22.50;96.90;;;;;;4959950;28;20105;-85
2022/09/24 10:51:15;;;;;;;7.63;4.80;;;22.60;97.00;;;;;;4941073;28;20038;-85
2022/09/24 10:54:19;;;;;;;7.73;5.03;;;22.70;95.70;;;;;;4915019;28;1172527;-85
2022/09/24 10:56:54;;;;;;;7.00;4.95;;;22.80;95.70;;;;;;4954229;28;20155;-85
2022/09/24 10:59:29;;;;;;;6.03;4.97;;;22.70;94.70;;;;;;4925952;28;20447;-85
2022/09/24 11:02:13;;;;;;;8.65;5.82;;;22.80;94.40;;;;;;4948527;28;20031;-86
2022/09/24 11:05:09;;;;;;;7.05;6.35;;;22.80;93.30;;;;;;4942785;28;20528;-86
2022/09/24 11:07:55;;;;;;;;;;;22.80;94.70;;;;;;4945910;28;20035;-87
2022/09/24 11:10:45;;;;;;;9.30;5.63;;;23.10;94.00;;;;;;4943860;28;20017;-86
2022/09/24 11:13:15;;;;;;;8.93;5.45;;;23.20;94.30;;;;;;4977128;28;20042;-86
2022/09/24 11:16:02;;;;;;;7.18;5.32;;;23.30;94.10;;;;;;4962791;28;20027;-86
2022/09/24 11:18:49;;;;;;;7.30;5.25;;;23.50;93.70;;;;;;4956381;28;20392;-86
2022/09/24 11:21:22;;;;;;;8.98;7.60;;;23.60;93.20;;;;;;4944696;28;20495;-85
2022/09/24 11:24:12;;;;;;;8.18;6.13;;;23.70;93.00;;;;;;4936111;28;20082;-87
2022/09/24 11:26:59;;;;;;;11.55;7.35;;;23.70;92.70;;;;;;4959380;28;20447;-87
2022/09/24 11:29:41;;;;;;;8.77;7.28;;;23.70;92.20;;;;;;4274649;28;10000838;-87
2022/09/24 11:32:18;;;;;;;9.07;7.22;;;23.70;92.80;;;;;;4948049;28;20507;-87
2022/09/24 11:35:06;;;;;;;8.35;6.90;;;23.90;91.60;;;;;;4937099;28;20031;-87
2022/09/24 11:37:41;;;;;;;9.68;8.45;;;23.70;91.60;;;;;;4963714;28;20031;-86
2022/09/24 11:40:33;;;;;;;11.20;7.75;;;23.90;91.20;;;;;;4955367;28;20040;-87
2022/09/24 11:43:27;;;;;;;14.25;7.80;;;24.00;91.00;;;;;;4942909;28;20035;-87
2022/09/24 11:46:01;;;;;;;9.85;8.10;;;23.90;90.90;;;;;;4959751;28;20033;-87
2022/09/24 11:49:00;;;;;;;10.50;8.30;;;23.90;91.40;;;;;;4958564;28;20031;-86
2022/09/24 11:51:35;;;;;;;12.00;8.23;;;23.90;90.20;;;;;;4959078;28;20042;-86
2022/09/24 11:54:15;;;;;;;12.43;8.55;;;23.80;90.60;;;;;;4961075;28;20505;-84
2022/09/24 11:56:50;;;;;;;7.65;6.40;;;23.70;90.60;;;;;;4958162;28;20027;-86
2022/09/24 11:59:23;;;;;;;10.88;8.35;;;23.60;90.40;;;;;;4917127;28;20058;-85
2022/09/24 12:01:55;;;;;;;10.65;7.13;;;23.70;90.40;;;;;;4939231;28;20117;-86
2022/09/24 12:04:45;;;;;;;9.13;7.43;;;23.60;90.10;;;;;;4948787;28;20118;-86
2022/09/24 12:07:13;;;;;;;14.70;9.77;;;23.60;90.00;;;;;;4594353;28;9999969;-86
2022/09/24 12:09:45;;;;;;;11.65;9.55;;;24.20;90.60;;;;;;4925345;28;20073;-86
2022/09/24 12:12:26;;;;;;;10.73;8.75;;;23.60;90.20;;;;;;4933591;28;20492;-86
2022/09/24 12:15:01;;;;;;;12.32;8.93;;;23.60;90.00;;;;;;4949925;28;20061;-86
2022/09/24 12:17:44;;;;;;;15.10;10.18;;;23.60;89.40;;;;;;4958534;28;20372;-86
2022/09/24 12:20:27;;;;;;;12.10;9.43;;;23.40;88.10;;;;;;4962676;28;20104;-86
2022/09/24 12:23:06;;;;;;;12.40;9.93;;;23.30;86.90;;;;;;4929635;28;20117;-86
2022/09/24 12:25:41;;;;;;;11.40;8.85;;;23.20;88.10;;;;;;4945033;28;20483;-86
2022/09/24 12:32:52;;;;;;;9.45;6.93;;;23.10;88.80;;;;;;4946038;28;20035;-86
2022/09/24 12:33:53;;;;;;;9.75;6.85;;;23.00;89.50;;;;;;4945414;28;20034;-85
2022/09/24 12:36:22;;;;;;;10.45;6.10;;;23.00;88.70;;;;;;4936254;28;20149;-85
2022/09/24 12:39:02;;;;;;;11.43;7.13;;;22.90;89.10;;;;;;4963235;28;20550;-86
2022/09/24 12:41:32;;;;;;;8.40;6.15;;;22.70;89.60;;;;;;4961826;28;20039;-85
2022/09/24 12:44:10;;;;;;;9.13;5.85;;;22.80;89.70;;;;;;4946719;28;20035;-85
2022/09/24 12:46:43;;;;;;;10.55;6.20;;;22.70;89.60;;;;;;4953098;28;20053;-85
2022/09/24 12:49:24;;;;;;;7.72;5.65;;;22.70;89.80;;;;;;4972134;28;20043;-85
2022/09/24 12:51:51;;;;;;;7.78;5.90;;;22.70;90.00;;;;;;4968786;28;20591;-86
2022/09/24 12:54:33;;;;;;;6.13;5.05;;;22.80;89.20;;;;;;4948935;28;20180;-85
2022/09/24 12:57:09;;;;;;;8.18;5.05;;;22.80;89.40;;;;;;4935770;28;20058;-84
2022/09/24 12:59:45;;;;;;;6.60;5.60;;;22.80;89.40;;;;;;4947759;28;20065;-85
2022/09/24 13:02:35;;;;;;;7.38;5.20;;;22.90;88.80;;;;;;4921518;28;20531;-85
2022/09/24 13:05:00;;;;;;;8.30;5.15;;;22.90;88.80;;;;;;4924846;28;20047;-85
2022/09/24 13:07:33;;;;;;;5.38;4.88;;;22.90;88.50;;;;;;4933514;28;20035;-86